Baycrest, New York
Current Conditions -  °F | °C
As of 12:53 PM on Friday 21 Nov 2014 (Local Time) from KFRG Reporting Station
Clear Clear  
Wind Chill: 27°   Ceiling: Unl
Heat Index: 36°   Visibility: 10mi
Dew Point: 10°   Wind: 14mph
Humidity: 34%   Direction: 320°NW
Pressure: 30.27"   Gusts: 25mph
Location:  40.8966°N, 73.4362°W
Report Text: KFRG 211753Z 32012G22KT 10SM CLR 02/M12 A3027 RMK AO2 PK WND 30028/1659 SLP251 T00221122 10028 21022 53004
Loading
Personal Weather Stations






























Interactive Weather Map New forecast layout! Learn more

10-Day Weather Forecast

Advertisements
Track Severe Weather on mobile